sensor_id;sensor_type;location;lat;lon;timestamp;pressure;altitude;pressure_sealevel;temperature;humidity
79236;BME280;69062;47.460;18.812;2023-04-26T00:00:28;99604.28;;;9.07;72.74
79236;BME280;69062;47.460;18.812;2023-04-26T00:01:30;99598.84;;;9.10;72.71
79236;BME280;69062;47.460;18.812;2023-04-26T00:02:31;99609.38;;;9.10;72.91
79236;BME280;69062;47.460;18.812;2023-04-26T00:03:34;99608.38;;;9.13;72.76
79236;BME280;69062;47.460;18.812;2023-04-26T00:04:38;99603.09;;;9.13;72.88
79236;BME280;69062;47.460;18.812;2023-04-26T00:05:40;99604.09;;;9.10;72.33
79236;BME280;69062;47.460;18.812;2023-04-26T00:06:41;99610.13;;;9.12;72.09
79236;BME280;69062;47.460;18.812;2023-04-26T00:07:43;99617.97;;;9.14;72.66
79236;BME280;69062;47.460;18.812;2023-04-26T00:09:50;99614.56;;;9.11;71.92
79236;BME280;69062;47.460;18.812;2023-04-26T00:10:55;99609.28;;;9.11;72.46
79236;BME280;69062;47.460;18.812;2023-04-26T00:11:56;99608.38;;;9.13;71.92
79236;BME280;69062;47.460;18.812;2023-04-26T00:12:57;99618.22;;;9.09;72.27
79236;BME280;69062;47.460;18.812;2023-04-26T00:13:59;99620.00;;;9.08;72.32
79236;BME280;69062;47.460;18.812;2023-04-26T00:15:00;99617.19;;;9.11;72.23
79236;BME280;69062;47.460;18.812;2023-04-26T00:16:02;99617.81;;;9.17;71.96
79236;BME280;69062;47.460;18.812;2023-04-26T00:17:03;99611.00;;;9.13;72.46
79236;BME280;69062;47.460;18.812;2023-04-26T00:18:05;99614.50;;;9.13;72.58
79236;BME280;69062;47.460;18.812;2023-04-26T00:19:06;99623.16;;;9.15;72.50
79236;BME280;69062;47.460;18.812;2023-04-26T00:20:10;99622.84;;;9.21;72.26
79236;BME280;69062;47.460;18.812;2023-04-26T00:21:13;99624.19;;;9.13;72.52
79236;BME280;69062;47.460;18.812;2023-04-26T00:22:14;99622.13;;;9.18;72.21
79236;BME280;69062;47.460;18.812;2023-04-26T00:23:16;99628.03;;;9.23;71.95
79236;BME280;69062;47.460;18.812;2023-04-26T00:24:18;99628.25;;;9.18;72.48
79236;BME280;69062;47.460;18.812;2023-04-26T00:25:19;99632.75;;;9.16;71.98
79236;BME280;69062;47.460;18.812;2023-04-26T00:26:21;99637.00;;;9.19;72.38
79236;BME280;69062;47.460;18.812;2023-04-26T00:27:22;99632.44;;;9.22;71.93
79236;BME280;69062;47.460;18.812;2023-04-26T00:28:24;99630.66;;;9.23;72.43
79236;BME280;69062;47.460;18.812;2023-04-26T00:29:25;99635.06;;;9.22;72.24
79236;BME280;69062;47.460;18.812;2023-04-26T00:31:53;99639.72;;;9.17;72.32
79236;BME280;69062;47.460;18.812;2023-04-26T00:32:54;99643.13;;;9.19;72.16
79236;BME280;69062;47.460;18.812;2023-04-26T00:33:56;99647.41;;;9.22;72.19
79236;BME280;69062;47.460;18.812;2023-04-26T00:34:57;99643.31;;;9.16;72.45
79236;BME280;69062;47.460;18.812;2023-04-26T00:35:59;99636.47;;;9.12;72.28
79236;BME280;69062;47.460;18.812;2023-04-26T00:37:01;99645.56;;;9.06;72.23
79236;BME280;69062;47.460;18.812;2023-04-26T00:38:02;99646.41;;;9.07;72.67
79236;BME280;69062;47.460;18.812;2023-04-26T00:39:04;99648.88;;;9.10;72.41
79236;BME280;69062;47.460;18.812;2023-04-26T00:40:05;99650.75;;;9.08;72.01
79236;BME280;69062;47.460;18.812;2023-04-26T00:41:07;99645.78;;;9.02;72.50
79236;BME280;69062;47.460;18.812;2023-04-26T00:42:08;99647.25;;;9.07;72.38
79236;BME280;69062;47.460;18.812;2023-04-26T00:43:10;99648.19;;;9.06;72.08
79236;BME280;69062;47.460;18.812;2023-04-26T00:44:11;99654.16;;;9.10;71.81
79236;BME280;69062;47.460;18.812;2023-04-26T00:45:13;99644.47;;;9.10;72.35
79236;BME280;69062;47.460;18.812;2023-04-26T00:46:14;99645.47;;;9.08;72.75
79236;BME280;69062;47.460;18.812;2023-04-26T00:47:15;99648.03;;;9.09;72.54
79236;BME280;69062;47.460;18.812;2023-04-26T00:48:17;99642.94;;;9.06;71.93
79236;BME280;69062;47.460;18.812;2023-04-26T00:49:22;99649.50;;;8.98;72.46
79236;BME280;69062;47.460;18.812;2023-04-26T00:50:24;99648.44;;;9.02;72.24
79236;BME280;69062;47.460;18.812;2023-04-26T00:51:25;99644.19;;;8.99;71.93
79236;BME280;69062;47.460;18.812;2023-04-26T00:52:27;99647.03;;;8.95;71.82
79236;BME280;69062;47.460;18.812;2023-04-26T00:53:28;99645.34;;;8.94;72.46
79236;BME280;69062;47.460;18.812;2023-04-26T00:54:31;99652.47;;;8.92;72.60
79236;BME280;69062;47.460;18.812;2023-04-26T00:55:33;99645.47;;;8.91;71.91
79236;BME280;69062;47.460;18.812;2023-04-26T00:56:35;99650.69;;;8.92;72.63
79236;BME280;69062;47.460;18.812;2023-04-26T00:57:38;99649.66;;;8.95;72.52
79236;BME280;69062;47.460;18.812;2023-04-26T00:58:40;99658.41;;;8.95;71.84
79236;BME280;69062;47.460;18.812;2023-04-26T00:59:41;99655.41;;;8.86;72.50
79236;BME280;69062;47.460;18.812;2023-04-26T01:00:45;99651.13;;;8.83;72.31
79236;BME280;69062;47.460;18.812;2023-04-26T01:01:46;99651.97;;;8.83;72.38
79236;BME280;69062;47.460;18.812;2023-04-26T01:02:49;99658.91;;;8.86;72.30
79236;BME280;69062;47.460;18.812;2023-04-26T01:03:51;99651.97;;;8.83;72.59
79236;BME280;69062;47.460;18.812;2023-04-26T01:04:52;99652.31;;;8.77;72.07
79236;BME280;69062;47.460;18.812;2023-04-26T01:05:54;99649.69;;;8.77;72.23
79236;BME280;69062;47.460;18.812;2023-04-26T01:06:56;99658.81;;;8.70;72.21
79236;BME280;69062;47.460;18.812;2023-04-26T01:07:57;99658.09;;;8.67;72.31
79236;BME280;69062;47.460;18.812;2023-04-26T01:09:03;99659.03;;;8.66;72.01
79236;BME280;69062;47.460;18.812;2023-04-26T01:10:08;99659.88;;;8.66;72.35
79236;BME280;69062;47.460;18.812;2023-04-26T01:11:10;99659.19;;;8.63;71.95
79236;BME280;69062;47.460;18.812;2023-04-26T01:12:13;99656.94;;;8.55;72.34
79236;BME280;69062;47.460;18.812;2023-04-26T01:13:15;99660.66;;;8.51;72.71
79236;BME280;69062;47.460;18.812;2023-04-26T01:14:17;99653.97;;;8.44;73.04
79236;BME280;69062;47.460;18.812;2023-04-26T01:15:18;99657.31;;;8.47;72.60
79236;BME280;69062;47.460;18.812;2023-04-26T01:16:20;99655.53;;;8.48;72.79
79236;BME280;69062;47.460;18.812;2023-04-26T01:17:22;99661.50;;;8.51;73.00
79236;BME280;69062;47.460;18.812;2023-04-26T01:18:23;99663.34;;;8.49;72.70
79236;BME280;69062;47.460;18.812;2023-04-26T01:19:25;99663.50;;;8.46;72.83
79236;BME280;69062;47.460;18.812;2023-04-26T01:20:27;99666.06;;;8.48;72.49
79236;BME280;69062;47.460;18.812;2023-04-26T01:21:28;99663.28;;;8.51;72.52
79236;BME280;69062;47.460;18.812;2023-04-26T01:22:31;99664.34;;;8.47;72.27
79236;BME280;69062;47.460;18.812;2023-04-26T01:23:33;99665.91;;;8.51;72.93
79236;BME280;69062;47.460;18.812;2023-04-26T01:24:35;99668.75;;;8.46;73.35
79236;BME280;69062;47.460;18.812;2023-04-26T01:25:38;99667.78;;;8.49;72.57
79236;BME280;69062;47.460;18.812;2023-04-26T01:26:40;99669.59;;;8.47;73.17
79236;BME280;69062;47.460;18.812;2023-04-26T01:27:48;99673.25;;;8.44;72.92
79236;BME280;69062;47.460;18.812;2023-04-26T01:28:55;99671.94;;;8.53;72.87
79236;BME280;69062;47.460;18.812;2023-04-26T01:29:56;99673.81;;;8.51;73.05
79236;BME280;69062;47.460;18.812;2023-04-26T01:30:58;99670.25;;;8.52;72.63
79236;BME280;69062;47.460;18.812;2023-04-26T01:31:59;99669.38;;;8.51;72.72
79236;BME280;69062;47.460;18.812;2023-04-26T01:33:02;99671.34;;;8.48;72.35
79236;BME280;69062;47.460;18.812;2023-04-26T01:34:04;99665.13;;;8.49;72.62
79236;BME280;69062;47.460;18.812;2023-04-26T01:35:06;99674.75;;;8.50;72.38
79236;BME280;69062;47.460;18.812;2023-04-26T01:36:10;99669.19;;;8.56;72.29
79236;BME280;69062;47.460;18.812;2023-04-26T01:37:11;99670.97;;;8.55;72.23
79236;BME280;69062;47.460;18.812;2023-04-26T01:38:13;99672.19;;;8.48;72.67
79236;BME280;69062;47.460;18.812;2023-04-26T01:39:14;99675.78;;;8.46;72.84
79236;BME280;69062;47.460;18.812;2023-04-26T01:40:17;99677.38;;;8.50;72.29
79236;BME280;69062;47.460;18.812;2023-04-26T01:41:18;99674.56;;;8.53;72.20
79236;BME280;69062;47.460;18.812;2023-04-26T01:42:20;99675.78;;;8.46;72.41
79236;BME280;69062;47.460;18.812;2023-04-26T01:43:21;99672.19;;;8.48;72.47
79236;BME280;69062;47.460;18.812;2023-04-26T01:44:23;99682.63;;;8.50;72.67
79236;BME280;69062;47.460;18.812;2023-04-26T01:45:25;99674.94;;;8.45;72.39
79236;BME280;69062;47.460;18.812;2023-04-26T01:46:45;99683.66;;;8.47;72.51
79236;BME280;69062;47.460;18.812;2023-04-26T01:47:47;99675.41;;;8.53;72.45
79236;BME280;69062;47.460;18.812;2023-04-26T01:48:48;99679.16;;;8.49;72.33
79236;BME280;69062;47.460;18.812;2023-04-26T01:49:49;99686.81;;;8.54;71.83
79236;BME280;69062;47.460;18.812;2023-04-26T01:50:51;99680.63;;;8.55;72.49
79236;BME280;69062;47.460;18.812;2023-04-26T01:51:53;99677.00;;;8.57;72.49
79236;BME280;69062;47.460;18.812;2023-04-26T01:52:54;99686.50;;;8.60;72.78
79236;BME280;69062;47.460;18.812;2023-04-26T01:53:56;99683.03;;;8.60;72.09
79236;BME280;69062;47.460;18.812;2023-04-26T01:54:59;99684.69;;;8.62;72.49
79236;BME280;69062;47.460;18.812;2023-04-26T01:56:02;99685.53;;;8.63;71.84
79236;BME280;69062;47.460;18.812;2023-04-26T01:57:05;99685.44;;;8.64;72.26
79236;BME280;69062;47.460;18.812;2023-04-26T01:58:06;99685.19;;;8.69;71.89
79236;BME280;69062;47.460;18.812;2023-04-26T01:59:08;99685.16;;;8.70;72.09
79236;BME280;69062;47.460;18.812;2023-04-26T02:00:09;99685.06;;;8.72;72.27
79236;BME280;69062;47.460;18.812;2023-04-26T02:01:17;99689.47;;;8.71;71.86
79236;BME280;69062;47.460;18.812;2023-04-26T02:02:19;99690.16;;;8.75;72.23
79236;BME280;69062;47.460;18.812;2023-04-26T02:03:21;99680.56;;;8.74;71.73
79236;BME280;69062;47.460;18.812;2023-04-26T02:04:25;99686.47;;;8.79;72.15
79236;BME280;69062;47.460;18.812;2023-04-26T02:05:26;99683.97;;;8.76;71.76
79236;BME280;69062;47.460;18.812;2023-04-26T02:06:28;99689.19;;;8.77;71.79
79236;BME280;69062;47.460;18.812;2023-04-26T02:07:29;99680.47;;;8.75;71.95
79236;BME280;69062;47.460;18.812;2023-04-26T02:08:30;99687.47;;;8.76;71.52
79236;BME280;69062;47.460;18.812;2023-04-26T02:09:32;99686.59;;;8.76;71.50
79236;BME280;69062;47.460;18.812;2023-04-26T02:10:33;99692.56;;;8.79;71.79
79236;BME280;69062;47.460;18.812;2023-04-26T02:11:35;99689.00;;;8.80;71.36
79236;BME280;69062;47.460;18.812;2023-04-26T02:12:36;99684.84;;;8.76;71.46
79236;BME280;69062;47.460;18.812;2023-04-26T02:13:38;99686.84;;;8.71;71.82
79236;BME280;69062;47.460;18.812;2023-04-26T02:14:39;99684.28;;;8.70;71.97
79236;BME280;69062;47.460;18.812;2023-04-26T02:15:45;99690.25;;;8.73;71.91
79236;BME280;69062;47.460;18.812;2023-04-26T02:16:47;99700.94;;;8.70;71.82
79236;BME280;69062;47.460;18.812;2023-04-26T02:17:48;99687.78;;;8.70;71.62
79236;BME280;69062;47.460;18.812;2023-04-26T02:18:49;99690.16;;;8.75;71.79
79236;BME280;69062;47.460;18.812;2023-04-26T02:19:51;99693.81;;;8.72;71.78
79236;BME280;69062;47.460;18.812;2023-04-26T02:20:52;99689.41;;;8.73;72.03
79236;BME280;69062;47.460;18.812;2023-04-26T02:21:55;99693.03;;;8.70;72.04
79236;BME280;69062;47.460;18.812;2023-04-26T02:22:57;99696.59;;;8.69;72.10
79236;BME280;69062;47.460;18.812;2023-04-26T02:23:59;99697.38;;;8.71;71.91
79236;BME280;69062;47.460;18.812;2023-04-26T02:25:00;99700.31;;;8.65;71.69
79236;BME280;69062;47.460;18.812;2023-04-26T02:26:27;99703.78;;;8.66;71.56
79236;BME280;69062;47.460;18.812;2023-04-26T02:27:28;99700.69;;;8.57;71.68
79236;BME280;69062;47.460;18.812;2023-04-26T02:28:30;99696.09;;;8.61;71.65
79236;BME280;69062;47.460;18.812;2023-04-26T02:29:31;99704.00;;;8.61;72.11
79236;BME280;69062;47.460;18.812;2023-04-26T02:30:33;99701.53;;;8.58;72.23
79236;BME280;69062;47.460;18.812;2023-04-26T02:31:35;99706.16;;;8.53;71.83
79236;BME280;69062;47.460;18.812;2023-04-26T02:32:36;99699.97;;;8.54;71.94
79236;BME280;69062;47.460;18.812;2023-04-26T02:33:37;99702.59;;;8.54;72.34
79236;BME280;69062;47.460;18.812;2023-04-26T02:34:39;99699.91;;;8.55;71.75
79236;BME280;69062;47.460;18.812;2023-04-26T02:35:40;99701.69;;;8.55;71.93
79236;BME280;69062;47.460;18.812;2023-04-26T02:36:42;99710.47;;;8.54;71.63
79236;BME280;69062;47.460;18.812;2023-04-26T02:37:43;99700.13;;;8.51;71.95
79236;BME280;69062;47.460;18.812;2023-04-26T02:38:49;99708.19;;;8.48;72.08
79236;BME280;69062;47.460;18.812;2023-04-26T02:39:51;99701.97;;;8.49;72.13
79236;BME280;69062;47.460;18.812;2023-04-26T02:41:00;99710.81;;;8.48;71.67
79236;BME280;69062;47.460;18.812;2023-04-26T02:42:08;99717.97;;;8.44;72.03
79236;BME280;69062;47.460;18.812;2023-04-26T02:43:10;99717.97;;;8.44;71.99
79236;BME280;69062;47.460;18.812;2023-04-26T02:44:13;99710.00;;;8.46;72.39
79236;BME280;69062;47.460;18.812;2023-04-26T02:45:14;99713.56;;;8.45;72.41
79236;BME280;69062;47.460;18.812;2023-04-26T02:46:17;99716.06;;;8.48;72.29
79236;BME280;69062;47.460;18.812;2023-04-26T02:47:22;99711.78;;;8.45;72.08
79236;BME280;69062;47.460;18.812;2023-04-26T02:48:24;99710.94;;;8.45;71.81
79236;BME280;69062;47.460;18.812;2023-04-26T02:49:25;99720.53;;;8.46;71.72
79236;BME280;69062;47.460;18.812;2023-04-26T02:50:27;99717.91;;;8.46;71.88
79236;BME280;69062;47.460;18.812;2023-04-26T02:51:29;99719.13;;;8.39;72.01
79236;BME280;69062;47.460;18.812;2023-04-26T02:52:30;99720.69;;;8.43;72.46
79236;BME280;69062;47.460;18.812;2023-04-26T02:53:32;99718.84;;;8.45;72.56
79236;BME280;69062;47.460;18.812;2023-04-26T02:54:34;99714.59;;;8.42;71.71
79236;BME280;69062;47.460;18.812;2023-04-26T02:55:37;99722.41;;;8.44;72.11
79236;BME280;69062;47.460;18.812;2023-04-26T02:56:38;99723.41;;;8.41;72.10
79236;BME280;69062;47.460;18.812;2023-04-26T02:57:40;99722.56;;;8.41;72.14
79236;BME280;69062;47.460;18.812;2023-04-26T02:58:42;99724.34;;;8.40;72.08
79236;BME280;69062;47.460;18.812;2023-04-26T02:59:43;99728.88;;;8.37;72.63
79236;BME280;69062;47.460;18.812;2023-04-26T03:00:45;99735.91;;;8.36;72.55
79236;BME280;69062;47.460;18.812;2023-04-26T03:01:50;99727.44;;;8.29;72.61
79236;BME280;69062;47.460;18.812;2023-04-26T03:02:51;99726.41;;;8.32;72.13
79236;BME280;69062;47.460;18.812;2023-04-26T03:03:53;99728.16;;;8.33;72.59
79236;BME280;69062;47.460;18.812;2023-04-26T03:04:55;99734.63;;;8.26;72.73
79236;BME280;69062;47.460;18.812;2023-04-26T03:05:56;99734.47;;;8.29;72.70
79236;BME280;69062;47.460;18.812;2023-04-26T03:06:58;99737.09;;;8.29;72.25
79236;BME280;69062;47.460;18.812;2023-04-26T03:08:00;99737.03;;;8.30;72.14
79236;BME280;69062;47.460;18.812;2023-04-26T03:09:01;99732.84;;;8.26;72.35
79236;BME280;69062;47.460;18.812;2023-04-26T03:10:03;99734.94;;;8.18;72.76
79236;BME280;69062;47.460;18.812;2023-04-26T03:11:06;99736.59;;;8.21;73.00
79236;BME280;69062;47.460;18.812;2023-04-26T03:12:08;99741.94;;;8.19;73.17
79236;BME280;69062;47.460;18.812;2023-04-26T03:13:11;99741.00;;;8.20;72.98
79236;BME280;69062;47.460;18.812;2023-04-26T03:14:12;99743.56;;;8.22;73.34
79236;BME280;69062;47.460;18.812;2023-04-26T03:15:14;99746.34;;;8.19;73.09
79236;BME280;69062;47.460;18.812;2023-04-26T03:16:19;99746.19;;;8.22;73.05
79236;BME280;69062;47.460;18.812;2023-04-26T03:17:23;99750.44;;;8.24;73.24
79236;BME280;69062;47.460;18.812;2023-04-26T03:18:25;99740.22;;;8.18;73.35
79236;BME280;69062;47.460;18.812;2023-04-26T03:19:27;99744.78;;;8.15;73.31
79236;BME280;69062;47.460;18.812;2023-04-26T03:20:29;99753.31;;;8.20;72.86
79236;BME280;69062;47.460;18.812;2023-04-26T03:21:31;99752.50;;;8.18;73.44
79236;BME280;69062;47.460;18.812;2023-04-26T03:22:33;99747.25;;;8.18;73.03
79236;BME280;69062;47.460;18.812;2023-04-26T03:23:35;99754.25;;;8.19;72.96
79236;BME280;69062;47.460;18.812;2023-04-26T03:24:36;99751.75;;;8.16;73.22
79236;BME280;69062;47.460;18.812;2023-04-26T03:25:38;99753.59;;;8.14;73.01
79236;BME280;69062;47.460;18.812;2023-04-26T03:26:39;99758.00;;;8.13;73.46
79236;BME280;69062;47.460;18.812;2023-04-26T03:27:41;99753.59;;;8.14;73.06
79236;BME280;69062;47.460;18.812;2023-04-26T03:28:43;99755.50;;;8.10;73.21
79236;BME280;69062;47.460;18.812;2023-04-26T03:29:44;99756.16;;;8.15;73.44
79236;BME280;69062;47.460;18.812;2023-04-26T03:30:46;99759.97;;;8.08;73.46
79236;BME280;69062;47.460;18.812;2023-04-26T03:31:50;99753.69;;;8.12;73.44
79236;BME280;69062;47.460;18.812;2023-04-26T03:32:52;99755.66;;;8.07;73.34
79236;BME280;69062;47.460;18.812;2023-04-26T03:33:53;99758.34;;;8.06;73.49
79236;BME280;69062;47.460;18.812;2023-04-26T03:34:55;99758.34;;;8.06;73.50
79236;BME280;69062;47.460;18.812;2023-04-26T03:35:57;99756.66;;;8.05;73.19
79236;BME280;69062;47.460;18.812;2023-04-26T03:36:58;99750.41;;;8.07;73.21
79236;BME280;69062;47.460;18.812;2023-04-26T03:37:59;99759.13;;;8.08;73.16
79236;BME280;69062;47.460;18.812;2023-04-26T03:39:01;99747.97;;;8.02;72.83
79236;BME280;69062;47.460;18.812;2023-04-26T03:40:05;99755.50;;;8.10;72.72
79236;BME280;69062;47.460;18.812;2023-04-26T03:41:08;99748.69;;;8.06;72.58
79236;BME280;69062;47.460;18.812;2023-04-26T03:42:10;99753.94;;;8.06;73.31
79236;BME280;69062;47.460;18.812;2023-04-26T03:43:11;99760.91;;;8.07;73.03
79236;BME280;69062;47.460;18.812;2023-04-26T03:44:13;99766.16;;;8.07;72.74
79236;BME280;69062;47.460;18.812;2023-04-26T03:45:15;99762.50;;;8.11;73.89
79236;BME280;69062;47.460;18.812;2023-04-26T03:46:17;99757.28;;;8.10;73.43
79236;BME280;69062;47.460;18.812;2023-04-26T03:47:20;99761.75;;;8.08;73.19
79236;BME280;69062;47.460;18.812;2023-04-26T03:48:21;99761.91;;;8.05;72.53
79236;BME280;69062;47.460;18.812;2023-04-26T03:49:22;99764.66;;;8.01;72.82
79236;BME280;69062;47.460;18.812;2023-04-26T03:50:24;99763.88;;;7.99;72.88
79236;BME280;69062;47.460;18.812;2023-04-26T03:51:26;99757.72;;;8.00;72.59
79236;BME280;69062;47.460;18.812;2023-04-26T03:52:28;99767.22;;;8.03;73.24
79236;BME280;69062;47.460;18.812;2023-04-26T03:53:30;99764.81;;;7.98;72.93
79236;BME280;69062;47.460;18.812;2023-04-26T03:54:33;99774.53;;;7.96;73.04
79236;BME280;69062;47.460;18.812;2023-04-26T03:55:35;99771.78;;;7.99;72.77
79236;BME280;69062;47.460;18.812;2023-04-26T03:56:36;99771.84;;;7.98;73.14
79236;BME280;69062;47.460;18.812;2023-04-26T03:57:45;99764.75;;;8.00;72.61
79236;BME280;69062;47.460;18.812;2023-04-26T03:58:50;99771.91;;;7.96;72.56
79236;BME280;69062;47.460;18.812;2023-04-26T04:00:15;99769.28;;;7.96;72.42
79236;BME280;69062;47.460;18.812;2023-04-26T04:01:16;99772.25;;;7.89;73.39
79236;BME280;69062;47.460;18.812;2023-04-26T04:02:18;99774.84;;;7.90;72.77
79236;BME280;69062;47.460;18.812;2023-04-26T04:03:19;99782.91;;;7.86;72.57
79236;BME280;69062;47.460;18.812;2023-04-26T04:04:21;99785.69;;;7.83;72.84
79236;BME280;69062;47.460;18.812;2023-04-26T04:05:23;99780.63;;;7.78;72.34
79236;BME280;69062;47.460;18.812;2023-04-26T04:06:25;99775.38;;;7.78;72.29
79236;BME280;69062;47.460;18.812;2023-04-26T04:07:27;99778.06;;;7.77;73.46
79236;BME280;69062;47.460;18.812;2023-04-26T04:08:28;99781.47;;;7.79;72.11
79236;BME280;69062;47.460;18.812;2023-04-26T04:09:30;99779.03;;;7.74;73.06
79236;BME280;69062;47.460;18.812;2023-04-26T04:10:31;99786.16;;;7.72;72.43
79236;BME280;69062;47.460;18.812;2023-04-26T04:11:33;99785.16;;;7.74;72.76
79236;BME280;69062;47.460;18.812;2023-04-26T04:12:35;99794.53;;;7.80;72.28
79236;BME280;69062;47.460;18.812;2023-04-26T04:13:37;99792.13;;;7.76;71.64
79236;BME280;69062;47.460;18.812;2023-04-26T04:15:43;99795.09;;;7.68;72.64
79236;BME280;69062;47.460;18.812;2023-04-26T04:16:45;99801.06;;;7.71;72.39
79236;BME280;69062;47.460;18.812;2023-04-26T04:17:46;99799.56;;;7.66;72.82
79236;BME280;69062;47.460;18.812;2023-04-26T04:18:48;99811.56;;;7.71;72.09
79236;BME280;69062;47.460;18.812;2023-04-26T04:19:50;99811.56;;;7.71;72.55
79236;BME280;69062;47.460;18.812;2023-04-26T04:20:51;99807.09;;;7.73;72.39
79236;BME280;69062;47.460;18.812;2023-04-26T04:21:53;99810.53;;;7.76;72.05
79236;BME280;69062;47.460;18.812;2023-04-26T04:22:55;99814.72;;;7.80;71.40
79236;BME280;69062;47.460;18.812;2023-04-26T04:23:57;99814.59;;;7.83;71.85
79236;BME280;69062;47.460;18.812;2023-04-26T04:24:59;99813.75;;;7.82;71.65
79236;BME280;69062;47.460;18.812;2023-04-26T04:26:01;99819.78;;;7.84;71.51
79236;BME280;69062;47.460;18.812;2023-04-26T04:27:03;99820.41;;;7.89;71.23
79236;BME280;69062;47.460;18.812;2023-04-26T04:28:05;99823.00;;;7.91;71.60
79236;BME280;69062;47.460;18.812;2023-04-26T04:29:08;99820.31;;;7.92;70.86
79236;BME280;69062;47.460;18.812;2023-04-26T04:30:12;99827.34;;;7.92;71.04
79236;BME280;69062;47.460;18.812;2023-04-26T04:31:18;99824.63;;;7.93;70.94
79236;BME280;69062;47.460;18.812;2023-04-26T04:32:21;99828.91;;;7.96;71.20
79236;BME280;69062;47.460;18.812;2023-04-26T04:33:24;99828.78;;;7.99;70.79
79236;BME280;69062;47.460;18.812;2023-04-26T04:34:33;99824.44;;;7.98;71.16
79236;BME280;69062;47.460;18.812;2023-04-26T04:35:34;99829.56;;;8.01;70.92
79236;BME280;69062;47.460;18.812;2023-04-26T04:36:38;99830.47;;;8.00;70.99
79236;BME280;69062;47.460;18.812;2023-04-26T04:37:40;99828.69;;;8.00;70.96
79236;BME280;69062;47.460;18.812;2023-04-26T04:38:43;99835.53;;;8.05;70.80
79236;BME280;69062;47.460;18.812;2023-04-26T04:39:46;99831.06;;;8.07;70.40
79236;BME280;69062;47.460;18.812;2023-04-26T04:40:47;99834.69;;;8.04;70.42
79236;BME280;69062;47.460;18.812;2023-04-26T04:41:51;99832.84;;;8.06;70.00
79236;BME280;69062;47.460;18.812;2023-04-26T04:42:55;99837.19;;;8.07;70.29
79236;BME280;69062;47.460;18.812;2023-04-26T04:43:57;99830.88;;;8.11;70.28
79236;BME280;69062;47.460;18.812;2023-04-26T04:45:00;99832.69;;;8.09;70.44
79236;BME280;69062;47.460;18.812;2023-04-26T04:46:03;99838.03;;;8.08;71.32
79236;BME280;69062;47.460;18.812;2023-04-26T04:47:04;99840.38;;;8.14;70.65
79236;BME280;69062;47.460;18.812;2023-04-26T04:48:07;99846.50;;;8.14;70.65
79236;BME280;69062;47.460;18.812;2023-04-26T04:49:11;99843.03;;;8.14;71.57
79236;BME280;69062;47.460;18.812;2023-04-26T04:50:13;99848.06;;;8.18;71.56
79236;BME280;69062;47.460;18.812;2023-04-26T04:51:14;99840.25;;;8.17;70.91
79236;BME280;69062;47.460;18.812;2023-04-26T04:52:16;99841.81;;;8.21;70.19
79236;BME280;69062;47.460;18.812;2023-04-26T04:53:18;99850.69;;;8.18;70.98
79236;BME280;69062;47.460;18.812;2023-04-26T04:54:20;99851.56;;;8.19;70.79
79236;BME280;69062;47.460;18.812;2023-04-26T04:55:22;99848.00;;;8.20;70.49
79236;BME280;69062;47.460;18.812;2023-04-26T04:56:23;99855.06;;;8.19;70.86
79236;BME280;69062;47.460;18.812;2023-04-26T04:57:26;99856.75;;;8.20;70.90
79236;BME280;69062;47.460;18.812;2023-04-26T04:58:28;99854.13;;;8.20;70.94
79236;BME280;69062;47.460;18.812;2023-04-26T04:59:29;99854.75;;;8.25;70.56
79236;BME280;69062;47.460;18.812;2023-04-26T05:00:31;99858.19;;;8.27;70.91
79236;BME280;69062;47.460;18.812;2023-04-26T05:02:08;99860.59;;;8.32;71.16
79236;BME280;69062;47.460;18.812;2023-04-26T05:03:25;99857.00;;;8.35;70.69
79236;BME280;69062;47.460;18.812;2023-04-26T05:04:42;99857.66;;;8.40;70.35
79236;BME280;69062;47.460;18.812;2023-04-26T05:05:59;99861.88;;;8.44;69.98
79236;BME280;69062;47.460;18.812;2023-04-26T05:07:16;99858.47;;;8.42;69.95
79236;BME280;69062;47.460;18.812;2023-04-26T05:08:35;99868.56;;;8.51;69.39
79236;BME280;69062;47.460;18.812;2023-04-26T05:09:39;99863.22;;;8.52;69.68
79236;BME280;69062;47.460;18.812;2023-04-26T05:10:44;99863.28;;;8.51;69.02
79236;BME280;69062;47.460;18.812;2023-04-26T05:11:46;99859.66;;;8.53;68.74
79236;BME280;69062;47.460;18.812;2023-04-26T05:13:02;99856.03;;;8.56;69.08
79236;BME280;69062;47.460;18.812;2023-04-26T05:14:19;99861.88;;;8.63;68.61
79236;BME280;69062;47.460;18.812;2023-04-26T05:15:35;99860.78;;;8.67;66.91
79236;BME280;69062;47.460;18.812;2023-04-26T05:16:53;99860.69;;;8.70;66.20
79236;BME280;69062;47.460;18.812;2023-04-26T05:17:54;99860.53;;;8.73;66.01
79236;BME280;69062;47.460;18.812;2023-04-26T05:18:57;99860.44;;;8.74;65.30
79236;BME280;69062;47.460;18.812;2023-04-26T05:19:59;99866.50;;;8.76;64.66
79236;BME280;69062;47.460;18.812;2023-04-26T05:21:00;99867.38;;;8.77;63.97
79236;BME280;69062;47.460;18.812;2023-04-26T05:22:02;99875.03;;;8.81;63.97
79236;BME280;69062;47.460;18.812;2023-04-26T05:23:04;99871.34;;;8.86;63.29
79236;BME280;69062;47.460;18.812;2023-04-26T05:24:22;99866.06;;;8.86;62.41
79236;BME280;69062;47.460;18.812;2023-04-26T05:25:23;99867.00;;;8.84;62.18
79236;BME280;69062;47.460;18.812;2023-04-26T05:26:34;99866.91;;;8.86;62.29
79236;BME280;69062;47.460;18.812;2023-04-26T05:28:08;99880.78;;;8.90;62.09
79236;BME280;69062;47.460;18.812;2023-04-26T05:29:32;99869.19;;;8.94;65.39
79236;BME280;69062;47.460;18.812;2023-04-26T05:30:35;99867.03;;;9.02;64.26
79236;BME280;69062;47.460;18.812;2023-04-26T05:31:55;99865.81;;;9.09;62.25
79236;BME280;69062;47.460;18.812;2023-04-26T05:33:08;99864.75;;;9.13;61.66
79236;BME280;69062;47.460;18.812;2023-04-26T05:34:23;99856.53;;;9.19;62.59
79236;BME280;69062;47.460;18.812;2023-04-26T05:35:29;99870.22;;;9.27;62.41
79236;BME280;69062;47.460;18.812;2023-04-26T05:36:30;99861.38;;;9.28;62.87
79236;BME280;69062;47.460;18.812;2023-04-26T05:37:32;99861.38;;;9.28;63.23
79236;BME280;69062;47.460;18.812;2023-04-26T05:38:35;99866.47;;;9.31;63.71